TBPB

Sir Grantley Adams International Airport

Bridgetown, Barbados
TAF TBPB 200500Z 2006/2106 09010KT 9999 SCT020
Issued Valid From Valid To
Jan-20 @ 05:00 UTC
(6 hours ago)
Jan-20 @ 06:00 UTC
(5 hours ago)
Jan-21 @ 06:00 UTC
(in 19 hours)
Jan-20 @ 06:00 to Jan-21 @ 06:00
TAF TBPB 200500Z 2006/2106 09010KT 9999 SCT020
Wind Visibility Clouds
90° at 10 knots 10,000+ meters
  • Scattered at 2,000' AGL
TAF TBPB 200500Z 2006/2106 09010KT 9999 SCT020
Issued Jan-20 @ 05:00 UTC
(6 hours ago)
Valid From Jan-20 @ 06:00 UTC
(5 hours ago)
Valid To Jan-21 @ 06:00 UTC
(in 19 hours)
Jan-20 @ 06:00 - Jan-21 @ 06:00
Wind Visibility
90° at 10 knots 10,000+ meters
Clouds
  • Scattered at 2,000' AGL